createdAt,value
2019-06-08T00:00:25.673Z,27.32
2019-06-08T00:02:53.963Z,29.45
2019-06-08T00:05:23.095Z,29.63
2019-06-08T00:07:51.496Z,26.57
2019-06-08T00:10:22.772Z,28.30
2019-06-08T00:12:50.336Z,26.68
2019-06-08T00:15:18.743Z,29.18
2019-06-08T00:17:47.332Z,28.55
2019-06-08T00:20:17.572Z,28.62
2019-06-08T00:22:46.079Z,27.05
2019-06-08T00:25:14.266Z,26.20
2019-06-08T00:27:42.522Z,23.20
2019-06-08T00:30:11.424Z,30.80
2019-06-08T00:32:39.668Z,26.35
2019-06-08T00:35:08.222Z,25.48
2019-06-08T00:37:36.470Z,30.92
2019-06-08T00:40:06.210Z,25.32
2019-06-08T00:42:34.470Z,27.30
2019-06-08T00:45:02.719Z,23.45
2019-06-08T00:47:46.562Z,26.57
2019-06-08T00:50:00.874Z,26.25
2019-06-08T00:52:29.412Z,28.05
2019-06-08T00:54:57.766Z,29.45
2019-06-08T00:57:26.110Z,28.30
2019-06-08T00:59:54.557Z,27.25
2019-06-08T01:02:22.839Z,27.13
2019-06-08T01:04:51.587Z,29.30
2019-06-08T01:07:19.980Z,25.00
2019-06-08T01:09:50.014Z,27.85
2019-06-08T01:12:18.665Z,29.95
2019-06-08T01:14:46.996Z,27.55
2019-06-08T01:17:15.217Z,31.85
2019-06-08T01:19:44.289Z,28.73
2019-06-08T01:22:12.499Z,29.40
2019-06-08T01:24:40.677Z,32.33
2019-06-08T01:27:08.949Z,35.55
2019-06-08T01:29:37.234Z,33.70
2019-06-08T01:32:05.460Z,26.77
2019-06-08T01:34:33.711Z,32.83
2019-06-08T01:37:01.922Z,32.73
2019-06-08T01:39:32.261Z,33.35
2019-06-08T01:41:59.960Z,27.60
2019-06-08T01:44:28.173Z,31.82
2019-06-08T01:46:56.398Z,32.23
2019-06-08T01:49:24.677Z,29.80
2019-06-08T01:51:52.874Z,29.95
2019-06-08T01:54:21.058Z,31.45
2019-06-08T01:56:49.312Z,31.75
2019-06-08T01:59:17.553Z,31.80
2019-06-08T02:01:45.797Z,33.80
2019-06-08T02:04:14.052Z,36.38
2019-06-08T02:06:42.270Z,32.20
2019-06-08T02:09:10.490Z,31.07
2019-06-08T02:11:39.376Z,33.58
2019-06-08T02:14:07.524Z,30.77
2019-06-08T02:16:35.766Z,31.80
2019-06-08T02:19:04.372Z,27.87
2019-06-08T02:21:32.856Z,35.28
2019-06-08T02:24:01.145Z,37.30
2019-06-08T02:26:30.438Z,31.95
2019-06-08T02:28:59.278Z,31.40
2019-06-08T02:31:27.995Z,34.95
2019-06-08T02:33:56.266Z,33.30
2019-06-08T02:36:24.501Z,33.18
2019-06-08T02:38:52.707Z,34.60
2019-06-08T02:41:20.981Z,31.50
2019-06-08T02:43:49.612Z,34.43
2019-06-08T02:46:17.817Z,31.17
2019-06-08T02:49:02.717Z,38.17
2019-06-08T02:51:16.323Z,39.27
2019-06-08T02:53:45.575Z,30.75
2019-06-08T02:56:14.586Z,34.63
2019-06-08T02:58:43.187Z,30.52
2019-06-08T03:01:11.490Z,35.10
2019-06-08T03:03:40.401Z,29.82
2019-06-08T03:06:08.865Z,32.50
2019-06-08T03:08:39.264Z,35.85
2019-06-08T03:11:07.339Z,36.10
2019-06-08T03:13:36.096Z,31.30
2019-06-08T03:16:05.457Z,36.48
2019-06-08T03:18:33.848Z,35.40
2019-06-08T03:21:02.760Z,35.98
2019-06-08T03:23:31.937Z,39.10
2019-06-08T03:26:00.229Z,37.90
2019-06-08T03:28:28.480Z,37.48
2019-06-08T03:30:56.708Z,48.90
2019-06-08T03:33:24.961Z,40.15
2019-06-08T03:35:57.937Z,40.80
2019-06-08T03:38:23.008Z,35.05
2019-06-08T03:40:51.656Z,33.55
2019-06-08T03:43:19.792Z,36.38
2019-06-08T03:45:48.054Z,29.63
2019-06-08T03:48:16.288Z,33.10
2019-06-08T03:50:46.199Z,38.95
2019-06-08T03:53:14.320Z,35.90
2019-06-08T03:55:44.804Z,34.20
2019-06-08T03:58:12.457Z,34.70
2019-06-08T04:00:40.621Z,31.97
2019-06-08T04:03:09.272Z,37.90
2019-06-08T04:05:39.805Z,31.93
2019-06-08T04:08:07.419Z,29.90
2019-06-08T04:10:37.465Z,33.10
2019-06-08T04:13:05.784Z,37.78
2019-06-08T04:15:34.082Z,32.20
2019-06-08T04:18:02.359Z,31.45
2019-06-08T04:20:30.596Z,35.35
2019-06-08T04:22:58.842Z,35.78
2019-06-08T04:25:28.142Z,31.30
2019-06-08T04:27:56.386Z,29.40
2019-06-08T04:30:24.710Z,29.10
2019-06-08T04:32:52.964Z,29.70
2019-06-08T04:35:21.177Z,30.25
2019-06-08T04:37:50.492Z,29.48
2019-06-08T04:40:19.256Z,26.55
2019-06-08T04:42:49.389Z,26.82
2019-06-08T04:45:17.322Z,28.38
2019-06-08T04:47:47.580Z,25.08
2019-06-08T04:50:22.423Z,23.52
2019-06-08T04:52:47.362Z,24.55
2019-06-08T04:55:15.781Z,26.85
2019-06-08T04:57:46.033Z,26.40
2019-06-08T05:00:14.920Z,24.92
2019-06-08T05:02:44.641Z,26.42
2019-06-08T05:05:13.221Z,27.62
2019-06-08T05:07:43.268Z,24.40
2019-06-08T05:10:12.849Z,23.67
2019-06-08T05:12:41.339Z,26.62
2019-06-08T05:15:10.752Z,22.62
2019-06-08T05:17:39.389Z,23.45
2019-06-08T05:20:08.105Z,22.77
2019-06-08T05:22:36.289Z,22.20
2019-06-08T05:25:05.502Z,22.60
2019-06-08T05:27:34.240Z,22.35
2019-06-08T05:30:08.440Z,23.52
2019-06-08T05:32:32.619Z,21.57
2019-06-08T05:35:00.934Z,18.10
2019-06-08T05:37:29.308Z,19.48
2019-06-08T05:39:57.597Z,20.62
2019-06-08T05:42:26.044Z,22.07
2019-06-08T05:44:54.553Z,19.73
2019-06-08T05:47:22.891Z,21.62
2019-06-08T05:49:51.218Z,22.52
2019-06-08T05:52:19.850Z,19.85
2019-06-08T05:54:48.100Z,26.87
2019-06-08T05:57:16.582Z,22.13
2019-06-08T05:59:46.067Z,21.70
2019-06-08T06:02:14.773Z,20.45
2019-06-08T06:04:44.322Z,17.95
2019-06-08T06:07:12.784Z,18.52
2019-06-08T06:09:41.337Z,25.15
2019-06-08T06:12:10.939Z,20.57
2019-06-08T06:14:39.288Z,25.15
2019-06-08T06:17:07.880Z,20.60
2019-06-08T06:19:36.259Z,16.00
2019-06-08T06:22:04.857Z,18.87
2019-06-08T06:24:33.315Z,21.80
2019-06-08T06:27:02.049Z,18.35
2019-06-08T06:29:30.347Z,16.67
2019-06-08T06:31:58.692Z,17.12
2019-06-08T06:34:27.063Z,24.32
2019-06-08T06:36:57.360Z,19.00
2019-06-08T06:39:25.528Z,13.08
2019-06-08T06:41:53.835Z,16.30
2019-06-08T06:44:22.168Z,13.83
2019-06-08T06:46:52.268Z,17.45
2019-06-08T06:49:20.995Z,15.70
2019-06-08T06:51:50.481Z,16.90
2019-06-08T06:54:19.116Z,12.20
2019-06-08T06:56:47.453Z,13.18
2019-06-08T06:59:15.831Z,15.88
2019-06-08T07:01:45.415Z,17.98
2019-06-08T07:04:14.086Z,17.15
2019-06-08T07:06:42.294Z,14.45
2019-06-08T07:09:10.719Z,14.95
2019-06-08T07:11:38.962Z,14.70
2019-06-08T07:14:07.347Z,12.30
2019-06-08T07:16:35.990Z,14.63
2019-06-08T07:19:04.446Z,13.20
2019-06-08T07:21:41.403Z,13.05
2019-06-08T07:24:02.609Z,15.75
2019-06-08T07:26:30.859Z,15.75
2019-06-08T07:28:59.073Z,14.20
2019-06-08T07:31:27.337Z,12.33
2019-06-08T07:33:55.915Z,12.78
2019-06-08T07:36:24.049Z,17.10
2019-06-08T07:38:53.358Z,12.80
2019-06-08T07:41:21.644Z,14.28
2019-06-08T07:43:50.768Z,14.58
2019-06-08T07:46:19.142Z,12.85
2019-06-08T07:48:48.089Z,16.42
2019-06-08T07:51:16.390Z,10.28
2019-06-08T07:53:44.661Z,12.25
2019-06-08T07:56:12.875Z,12.90
2019-06-08T07:58:41.114Z,10.00
2019-06-08T08:01:09.339Z,14.05
2019-06-08T08:03:37.511Z,10.63
2019-06-08T08:06:05.786Z,11.60
2019-06-08T08:08:34.029Z,9.38
2019-06-08T08:11:02.235Z,8.98
2019-06-08T08:13:30.439Z,12.20
2019-06-08T08:15:59.379Z,12.53
2019-06-08T08:18:28.506Z,15.03
2019-06-08T08:20:59.177Z,11.95
2019-06-08T08:23:27.432Z,13.25
2019-06-08T08:25:58.647Z,9.55
2019-06-08T08:28:27.848Z,11.90
2019-06-08T08:30:58.572Z,12.85
2019-06-08T08:33:27.668Z,11.05
2019-06-08T08:35:55.641Z,10.58
2019-06-08T08:38:27.266Z,9.93
2019-06-08T08:40:59.364Z,12.30
2019-06-08T08:43:25.181Z,11.48
2019-06-08T08:45:54.015Z,11.48
2019-06-08T08:48:28.114Z,12.18
2019-06-08T08:50:52.386Z,7.92
2019-06-08T08:53:20.793Z,7.60
2019-06-08T08:55:49.854Z,12.18
2019-06-08T08:58:19.389Z,7.35
2019-06-08T09:00:48.644Z,9.55
2019-06-08T09:03:28.741Z,9.40
2019-06-08T09:05:48.276Z,9.78
2019-06-08T09:08:18.207Z,8.73
2019-06-08T09:10:48.063Z,8.80
2019-06-08T09:13:18.650Z,9.73
2019-06-08T09:15:47.962Z,11.03
2019-06-08T09:18:18.641Z,13.08
2019-06-08T09:20:47.872Z,10.80
2019-06-08T09:23:21.440Z,11.68
2019-06-08T09:25:48.251Z,11.03
2019-06-08T09:28:18.517Z,12.65
2019-06-08T09:30:48.238Z,7.62
2019-06-08T09:33:18.608Z,8.05
2019-06-08T09:35:47.897Z,7.90
2019-06-08T09:38:18.370Z,9.35
2019-06-08T09:40:45.770Z,8.15
2019-06-08T09:43:13.978Z,9.00
2019-06-08T09:45:42.273Z,13.18
2019-06-08T09:48:10.493Z,8.10
2019-06-08T09:50:38.806Z,7.65
2019-06-08T09:53:23.031Z,8.35
2019-06-08T09:55:38.185Z,10.13
2019-06-08T09:58:11.508Z,8.48
2019-06-08T10:00:37.960Z,8.88
2019-06-08T10:03:09.109Z,8.48
2019-06-08T10:05:38.694Z,8.78
2019-06-08T10:08:07.031Z,9.10
2019-06-08T10:10:36.008Z,8.25
2019-06-08T10:13:06.253Z,7.95
2019-06-08T10:15:34.303Z,7.80
2019-06-08T10:18:03.326Z,8.63
2019-06-08T10:20:31.967Z,10.38
2019-06-08T10:23:03.195Z,10.65
2019-06-08T10:25:32.166Z,9.53
2019-06-08T10:28:06.752Z,10.43
2019-06-08T10:30:30.474Z,7.80
2019-06-08T10:33:01.594Z,10.28
2019-06-08T10:35:28.640Z,7.60
2019-06-08T10:38:01.422Z,8.03
2019-06-08T10:40:28.511Z,8.40
2019-06-08T10:42:59.832Z,9.43
2019-06-08T10:45:28.526Z,8.65
2019-06-08T10:47:59.350Z,8.40
2019-06-08T10:50:28.793Z,8.33
2019-06-08T10:53:01.259Z,7.67
2019-06-08T10:55:28.074Z,6.60
2019-06-08T10:57:56.458Z,7.33
2019-06-08T11:00:28.151Z,9.03
2019-06-08T11:02:58.988Z,11.20
2019-06-08T11:05:27.916Z,9.95
2019-06-08T11:07:55.661Z,8.30
2019-06-08T11:10:23.909Z,7.30
2019-06-08T11:12:52.117Z,7.70
2019-06-08T11:15:20.414Z,8.68
2019-06-08T11:17:48.632Z,6.95
2019-06-08T11:20:17.705Z,8.60
2019-06-08T11:22:49.804Z,7.22
2019-06-08T11:25:19.639Z,7.97
2019-06-08T11:27:47.503Z,9.78
2019-06-08T11:30:23.478Z,7.35
2019-06-08T11:32:47.923Z,8.60
2019-06-08T11:35:17.708Z,7.72
2019-06-08T11:37:48.708Z,7.53
2019-06-08T11:40:18.065Z,6.35
2019-06-08T11:42:48.513Z,9.08
2019-06-08T11:45:17.738Z,9.30
2019-06-08T11:47:48.402Z,7.65
2019-06-08T11:50:18.294Z,6.90
2019-06-08T11:52:49.190Z,7.37
2019-06-08T11:55:18.108Z,10.32
2019-06-08T11:57:48.761Z,6.80
2019-06-08T12:00:27.589Z,6.78
2019-06-08T12:02:51.489Z,7.28
2019-06-08T12:05:19.653Z,9.15
2019-06-08T12:07:48.087Z,8.50
2019-06-08T12:10:17.781Z,9.65
2019-06-08T12:12:46.128Z,6.47
2019-06-08T12:15:17.544Z,6.67
2019-06-08T12:17:44.223Z,8.63
2019-06-08T12:20:17.073Z,9.78
2019-06-08T12:22:42.528Z,12.73
2019-06-08T12:25:12.372Z,7.53
2019-06-08T12:27:40.573Z,10.63
2019-06-08T12:30:16.720Z,9.50
2019-06-08T12:32:38.688Z,9.28
2019-06-08T12:35:09.041Z,6.92
2019-06-08T12:37:38.744Z,8.08
2019-06-08T12:40:09.808Z,7.05
2019-06-08T12:42:38.198Z,8.08
2019-06-08T12:45:07.259Z,7.47
2019-06-08T12:47:37.912Z,9.43
2019-06-08T12:50:08.213Z,7.70
2019-06-08T12:52:35.955Z,7.55
2019-06-08T12:55:11.310Z,6.37
2019-06-08T12:57:35.596Z,6.37
2019-06-08T13:00:05.422Z,10.60
2019-06-08T13:02:33.725Z,6.53
2019-06-08T13:05:01.938Z,7.67
2019-06-08T13:07:30.186Z,7.67
2019-06-08T13:09:58.484Z,9.93
2019-06-08T13:12:26.749Z,8.83
2019-06-08T13:14:55.034Z,10.18
2019-06-08T13:17:23.226Z,6.83
2019-06-08T13:19:51.363Z,6.97
2019-06-08T13:22:27.265Z,7.47
2019-06-08T13:24:49.469Z,7.37
2019-06-08T13:27:21.109Z,14.28
2019-06-08T13:29:48.830Z,7.35
2019-06-08T13:32:19.906Z,8.05
2019-06-08T13:34:47.267Z,8.33
2019-06-08T13:37:18.929Z,6.10
2019-06-08T13:39:46.747Z,8.45
2019-06-08T13:42:15.242Z,8.53
2019-06-08T13:44:44.062Z,5.97
2019-06-08T13:47:12.591Z,5.92
2019-06-08T13:49:41.415Z,7.60
2019-06-08T13:52:10.290Z,5.85
2019-06-08T13:54:38.464Z,7.25
2019-06-08T13:57:08.583Z,6.12
2019-06-08T13:59:38.844Z,6.22
2019-06-08T14:02:06.395Z,7.05
2019-06-08T14:04:34.588Z,6.30
2019-06-08T14:07:02.824Z,8.90
2019-06-08T14:09:31.679Z,6.78
2019-06-08T14:12:00.156Z,7.03
2019-06-08T14:14:29.007Z,7.47
2019-06-08T14:16:58.760Z,7.25
2019-06-08T14:19:31.046Z,7.92
2019-06-08T14:21:57.407Z,6.42
2019-06-08T14:24:44.997Z,8.18
2019-06-08T14:27:13.398Z,8.23
2019-06-08T14:29:41.606Z,9.00
2019-06-08T14:32:09.813Z,6.72
2019-06-08T14:34:38.665Z,10.03
2019-06-08T14:37:08.653Z,10.00
2019-06-08T14:39:36.936Z,8.75
2019-06-08T14:42:05.212Z,9.03
2019-06-08T14:44:34.089Z,10.98
2019-06-08T14:47:04.161Z,10.35
2019-06-08T14:49:34.961Z,10.85
2019-06-08T14:52:02.233Z,9.68
2019-06-08T14:54:34.795Z,10.75
2019-06-08T14:57:00.369Z,8.48
2019-06-08T14:59:30.421Z,8.30
2019-06-08T15:01:58.402Z,8.53
2019-06-08T15:04:32.580Z,7.97
2019-06-08T15:06:58.623Z,8.50
2019-06-08T15:09:27.518Z,7.37
2019-06-08T15:11:57.975Z,9.60
2019-06-08T15:14:25.803Z,8.50
2019-06-08T15:16:55.677Z,9.20
2019-06-08T15:19:24.432Z,8.93
2019-06-08T15:21:52.764Z,9.80
2019-06-08T15:24:20.964Z,8.13
2019-06-08T15:26:49.256Z,10.38
2019-06-08T15:29:17.531Z,10.50
2019-06-08T15:31:48.104Z,9.90
2019-06-08T15:34:17.782Z,7.22
2019-06-08T15:36:45.501Z,8.48
2019-06-08T15:39:13.664Z,12.25
2019-06-08T15:41:42.167Z,9.53
2019-06-08T15:44:10.305Z,8.88
2019-06-08T15:46:41.057Z,12.05
2019-06-08T15:49:10.808Z,10.90
2019-06-08T15:51:40.683Z,11.20
2019-06-08T15:54:08.201Z,11.15
2019-06-08T15:56:47.670Z,10.72
2019-06-08T15:59:08.852Z,13.65
2019-06-08T16:01:36.157Z,13.40
2019-06-08T16:04:04.670Z,10.25
2019-06-08T16:06:33.915Z,10.82
2019-06-08T16:09:02.480Z,12.55
2019-06-08T16:11:30.767Z,11.38
2019-06-08T16:13:58.971Z,10.45
2019-06-08T16:16:27.158Z,10.98
2019-06-08T16:18:55.388Z,12.13
2019-06-08T16:21:23.651Z,15.13
2019-06-08T16:23:51.901Z,14.05
2019-06-08T16:26:20.130Z,16.52
2019-06-08T16:28:48.449Z,12.47
2019-06-08T16:31:16.673Z,13.20
2019-06-08T16:33:45.475Z,10.72
2019-06-08T16:36:13.638Z,12.85
2019-06-08T16:38:41.838Z,13.55
2019-06-08T16:41:11.362Z,10.58
2019-06-08T16:43:39.531Z,13.70
2019-06-08T16:46:07.673Z,15.48
2019-06-08T16:48:36.289Z,16.85
2019-06-08T16:51:04.563Z,16.97
2019-06-08T16:53:34.048Z,16.48
2019-06-08T16:56:02.854Z,10.72
2019-06-08T16:58:32.138Z,9.38
2019-06-08T17:01:00.512Z,9.98
2019-06-08T17:03:28.810Z,10.30
2019-06-08T17:05:57.001Z,9.73
2019-06-08T17:08:25.229Z,10.72
2019-06-08T17:10:53.798Z,12.13
2019-06-08T17:13:22.181Z,13.62
2019-06-08T17:15:50.344Z,13.62
2019-06-08T17:18:18.639Z,14.90
2019-06-08T17:20:46.843Z,16.77
2019-06-08T17:23:15.013Z,14.47
2019-06-08T17:25:43.282Z,18.48
2019-06-08T17:28:11.485Z,13.08
2019-06-08T17:30:39.745Z,14.45
2019-06-08T17:33:07.995Z,13.68
2019-06-08T17:35:37.306Z,14.80
2019-06-08T17:38:05.954Z,16.65
2019-06-08T17:40:34.276Z,16.20
2019-06-08T17:43:02.597Z,22.32
2019-06-08T17:45:32.175Z,15.70
2019-06-08T17:48:00.662Z,13.75
2019-06-08T17:50:28.809Z,18.52
2019-06-08T17:52:56.952Z,14.23
2019-06-08T17:55:25.119Z,15.90
2019-06-08T17:57:53.873Z,15.63
2019-06-08T18:00:22.434Z,18.07
2019-06-08T18:02:51.113Z,15.38
2019-06-08T18:05:19.246Z,16.75
2019-06-08T18:07:49.033Z,19.23
2019-06-08T18:10:17.966Z,17.73
2019-06-08T18:12:49.018Z,24.63
2019-06-08T18:15:17.434Z,15.83
2019-06-08T18:17:48.089Z,21.10
2019-06-08T18:20:18.149Z,22.48
2019-06-08T18:22:48.869Z,20.25
2019-06-08T18:25:17.448Z,29.48
2019-06-08T18:28:02.663Z,24.15
2019-06-08T18:30:18.962Z,23.40
2019-06-08T18:32:48.530Z,21.45
2019-06-08T18:35:18.305Z,24.20
2019-06-08T18:37:48.710Z,29.87
2019-06-08T18:40:17.949Z,27.15
2019-06-08T18:42:48.700Z,21.12
2019-06-08T18:45:18.180Z,33.02
2019-06-08T18:47:48.487Z,20.25
2019-06-08T18:50:17.363Z,18.85
2019-06-08T18:52:47.166Z,17.52
2019-06-08T18:55:18.349Z,21.68
2019-06-08T18:57:49.091Z,16.37
2019-06-08T19:00:16.481Z,18.52
2019-06-08T19:02:46.456Z,20.12
2019-06-08T19:05:14.604Z,17.82
2019-06-08T19:07:43.782Z,17.75
2019-06-08T19:10:13.612Z,17.65
2019-06-08T19:12:42.876Z,22.95
2019-06-08T19:15:12.036Z,21.55
2019-06-08T19:17:46.544Z,21.52
2019-06-08T19:20:10.576Z,17.30
2019-06-08T19:22:43.750Z,21.52
2019-06-08T19:25:08.708Z,19.90
2019-06-08T19:27:41.055Z,22.05
2019-06-08T19:30:06.814Z,26.77
2019-06-08T19:32:34.994Z,39.10
2019-06-08T19:35:03.525Z,22.87
2019-06-08T19:37:32.803Z,24.25
2019-06-08T19:40:01.187Z,22.67
2019-06-08T19:42:39.685Z,23.80
2019-06-08T19:45:05.219Z,25.10
2019-06-08T19:47:29.351Z,24.18
2019-06-08T19:49:57.869Z,28.60
2019-06-08T19:52:26.206Z,23.55
2019-06-08T19:54:54.734Z,22.50
2019-06-08T19:57:23.004Z,24.80
2019-06-08T19:59:51.207Z,29.37
2019-06-08T20:02:19.378Z,24.45
2019-06-08T20:04:47.518Z,30.00
2019-06-08T20:07:17.532Z,26.55
2019-06-08T20:09:48.160Z,33.95
2019-06-08T20:12:18.479Z,28.50
2019-06-08T20:14:48.035Z,33.02
2019-06-08T20:17:17.182Z,34.73
2019-06-08T20:19:48.059Z,36.75
2019-06-08T20:22:18.083Z,48.38
2019-06-08T20:24:46.995Z,55.15
2019-06-08T20:27:17.217Z,36.30
2019-06-08T20:29:47.849Z,32.30
2019-06-08T20:32:17.884Z,38.95
2019-06-08T20:34:45.141Z,37.03
2019-06-08T20:37:17.411Z,42.73
2019-06-08T20:39:59.406Z,40.90
2019-06-08T20:42:17.195Z,44.95
2019-06-08T20:44:44.585Z,45.05
2019-06-08T20:47:12.844Z,46.15
2019-06-08T20:49:42.179Z,54.93
2019-06-08T20:52:10.617Z,49.00
2019-06-08T20:54:38.889Z,48.78
2019-06-08T20:57:07.607Z,45.98
2019-06-08T20:59:39.377Z,45.08
2019-06-08T21:02:08.370Z,48.48
2019-06-08T21:04:38.206Z,49.70
2019-06-08T21:07:07.983Z,60.17
2019-06-08T21:09:37.104Z,47.43
2019-06-08T21:12:05.709Z,49.90
2019-06-08T21:14:33.909Z,50.83
2019-06-08T21:17:02.091Z,49.13
2019-06-08T21:19:30.291Z,53.20
2019-06-08T21:21:59.324Z,53.48
2019-06-08T21:24:28.209Z,52.13
2019-06-08T21:27:00.154Z,59.40
2019-06-08T21:29:32.323Z,58.00
2019-06-08T21:32:00.338Z,57.55
2019-06-08T21:34:26.162Z,63.60
2019-06-08T21:36:55.725Z,61.33
2019-06-08T21:39:24.381Z,60.03
2019-06-08T21:41:54.958Z,58.60
2019-06-08T21:44:22.472Z,59.58
2019-06-08T21:46:51.782Z,54.85
2019-06-08T21:49:20.590Z,54.35
2019-06-08T21:51:51.340Z,51.13
2019-06-08T21:54:18.684Z,55.15
2019-06-08T21:56:48.934Z,51.63
2019-06-08T21:59:18.205Z,48.90
2019-06-08T22:01:49.190Z,56.28
2019-06-08T22:04:18.508Z,51.35
2019-06-08T22:06:48.014Z,50.20
2019-06-08T22:09:17.640Z,44.70
2019-06-08T22:11:47.125Z,44.30
2019-06-08T22:14:15.560Z,45.60
2019-06-08T22:16:43.816Z,46.10
2019-06-08T22:19:12.018Z,42.35
2019-06-08T22:21:40.155Z,37.63
2019-06-08T22:24:08.434Z,37.70
2019-06-08T22:26:36.766Z,35.52
2019-06-08T22:29:07.599Z,38.42
2019-06-08T22:31:37.051Z,35.00
2019-06-08T22:34:04.855Z,31.85
2019-06-08T22:36:33.003Z,36.03
2019-06-08T22:39:03.834Z,31.05
2019-06-08T22:41:32.108Z,33.85
2019-06-08T22:44:00.954Z,33.40
2019-06-08T22:46:29.291Z,28.10
2019-06-08T22:49:00.592Z,36.75
2019-06-08T22:51:27.754Z,29.48
2019-06-08T22:53:58.895Z,29.80
2019-06-08T22:56:27.602Z,27.10
2019-06-08T22:58:57.150Z,27.82
2019-06-08T23:01:27.879Z,30.25
2019-06-08T23:03:57.005Z,29.67
2019-06-08T23:06:27.937Z,29.60
2019-06-08T23:08:59.780Z,25.02
2019-06-08T23:11:25.487Z,25.23
2019-06-08T23:13:54.319Z,28.50
2019-06-08T23:16:22.908Z,25.82
2019-06-08T23:18:51.157Z,23.70
2019-06-08T23:21:19.492Z,24.63
2019-06-08T23:23:47.895Z,26.85
2019-06-08T23:26:18.140Z,24.10
2019-06-08T23:28:47.152Z,22.48
2019-06-08T23:31:22.517Z,23.02
2019-06-08T23:33:47.997Z,22.42
2019-06-08T23:36:45.954Z,21.15
2019-06-08T23:38:47.982Z,21.97
2019-06-08T23:41:17.688Z,22.75
2019-06-08T23:43:47.898Z,22.98
2019-06-08T23:46:17.907Z,19.92
2019-06-08T23:48:48.158Z,22.75
2019-06-08T23:51:17.906Z,18.30
2019-06-08T23:53:47.607Z,18.75
2019-06-08T23:56:15.336Z,18.42
2019-06-08T23:58:43.551Z,16.23
